Time;durP1;ratioP1;P1;durP2;ratioP2;P2;SDS_P1;SDS_P2;PMS_P1;PMS_P2;Temp;Humidity;BMP_temperature;BMP_pressure;BME280_temperature;BME280_humidity;BME280_pressure;Samples;Min_cycle;Max_cycle;Signal;HPM_P1;HPM_P2
2022/02/20 00:01:57;;;;;;;6.33;2.60;;;4.80;99.90;;;;;;5073859;28;20216;-64
2022/02/20 00:04:24;;;;;;;7.03;2.40;;;4.80;99.90;;;;;;5074789;28;20243;-64
2022/02/20 00:06:51;;;;;;;5.50;2.30;;;4.80;99.90;;;;;;5084649;28;20653;-64
2022/02/20 00:09:19;;;;;;;4.63;2.07;;;4.80;99.90;;;;;;5075875;28;20216;-64
2022/02/20 00:11:46;;;;;;;7.57;2.33;;;4.80;99.90;;;;;;5083240;28;20295;-65
2022/02/20 00:14:13;;;;;;;7.07;2.43;;;4.70;99.90;;;;;;5080791;28;20398;-65
2022/02/20 00:16:40;;;;;;;5.50;1.90;;;4.70;99.90;;;;;;5072011;28;20212;-64
2022/02/20 00:19:07;;;;;;;8.50;2.20;;;4.70;99.90;;;;;;5071034;28;20205;-67
2022/02/20 00:21:34;;;;;;;4.77;2.50;;;4.70;99.90;;;;;;5075935;28;20228;-64
2022/02/20 00:24:01;;;;;;;4.80;2.37;;;4.70;99.90;;;;;;5083954;28;20205;-64
2022/02/20 00:26:29;;;;;;;6.33;2.40;;;4.70;99.90;;;;;;5070079;28;20296;-64
2022/02/20 00:28:56;;;;;;;5.40;2.20;;;4.70;99.90;;;;;;5075630;28;20242;-64
2022/02/20 00:31:23;;;;;;;3.67;1.90;;;4.70;99.90;;;;;;5067202;28;20320;-65
2022/02/20 00:33:50;;;;;;;4.43;2.13;;;4.70;99.90;;;;;;5088650;28;20209;-64
2022/02/20 00:36:16;;;;;;;4.63;2.13;;;4.70;99.90;;;;;;5074509;28;20201;-65
2022/02/20 00:38:43;;;;;;;6.97;2.27;;;4.70;99.90;;;;;;5061003;28;20217;-63
2022/02/20 00:41:10;;;;;;;4.63;2.10;;;4.70;99.90;;;;;;5060095;28;20202;-65
2022/02/20 00:43:38;;;;;;;4.27;1.93;;;4.70;99.90;;;;;;5068259;28;20250;-64
2022/02/20 00:46:05;;;;;;;4.37;1.97;;;4.60;99.90;;;;;;5065422;28;20642;-64
2022/02/20 00:48:32;;;;;;;6.10;2.47;;;4.70;99.90;;;;;;5087314;28;20633;-64
2022/02/20 00:50:59;;;;;;;5.47;1.97;;;4.70;99.90;;;;;;5070203;28;20229;-65
2022/02/20 00:53:26;;;;;;;6.20;2.27;;;4.60;99.90;;;;;;5074095;28;20650;-64
2022/02/20 00:55:53;;;;;;;6.00;1.70;;;4.60;99.90;;;;;;5066850;28;20248;-63
2022/02/20 00:58:20;;;;;;;3.70;1.93;;;4.60;99.90;;;;;;5063119;28;20636;-65
2022/02/20 01:00:48;;;;;;;5.07;2.30;;;4.60;99.90;;;;;;5069644;28;20706;-64
2022/02/20 01:03:15;;;;;;;6.80;2.03;;;4.60;99.90;;;;;;5074642;28;20744;-65
2022/02/20 01:05:42;;;;;;;6.13;2.10;;;4.60;99.90;;;;;;5064565;28;20295;-65
2022/02/20 01:08:09;;;;;;;5.80;1.93;;;4.50;99.90;;;;;;5073668;28;20323;-65
2022/02/20 01:10:37;;;;;;;4.40;2.10;;;4.60;99.90;;;;;;5073462;28;20311;-65
2022/02/20 01:13:04;;;;;;;4.67;2.13;;;4.60;99.90;;;;;;5078517;28;20208;-64
2022/02/20 01:15:31;;;;;;;7.63;2.30;;;4.50;99.90;;;;;;5072918;28;20567;-64
2022/02/20 01:17:59;;;;;;;5.37;2.00;;;4.50;99.90;;;;;;5059861;28;20212;-65
2022/02/20 01:20:26;;;;;;;5.07;2.30;;;4.50;99.90;;;;;;5073966;28;20662;-65
2022/02/20 01:22:53;;;;;;;5.07;2.13;;;4.40;99.90;;;;;;5089386;28;20314;-65
2022/02/20 01:25:21;;;;;;;8.57;2.00;;;4.40;99.90;;;;;;5086434;28;20236;-64
2022/02/20 01:27:47;;;;;;;5.87;2.53;;;4.40;99.90;;;;;;5073992;28;20205;-65
2022/02/20 01:30:14;;;;;;;4.50;2.57;;;4.40;99.90;;;;;;5073178;28;20320;-65
2022/02/20 01:32:41;;;;;;;7.27;2.13;;;4.40;99.90;;;;;;5072027;28;20212;-65
2022/02/20 01:35:12;;;;;;;7.83;3.30;;;4.40;99.90;;;;;;5073400;28;20290;-65
2022/02/20 01:37:39;;;;;;;6.20;2.40;;;4.40;99.90;;;;;;5068219;28;20205;-65
2022/02/20 01:40:07;;;;;;;8.00;2.30;;;4.40;99.90;;;;;;5068793;28;20503;-64
2022/02/20 01:42:34;;;;;;;7.70;3.27;;;4.40;99.90;;;;;;5073018;28;20207;-64
2022/02/20 01:45:01;;;;;;;6.57;2.97;;;4.40;99.90;;;;;;5070354;28;20213;-65
2022/02/20 01:47:29;;;;;;;6.67;2.70;;;4.40;99.90;;;;;;5087185;28;20205;-65
2022/02/20 01:49:56;;;;;;;6.13;2.53;;;4.40;99.90;;;;;;5074515;28;20214;-65
2022/02/20 01:52:24;;;;;;;7.73;2.73;;;4.40;99.90;;;;;;5069535;28;20292;-64
2022/02/20 01:54:51;;;;;;;4.43;2.30;;;4.50;99.90;;;;;;5073299;28;20205;-64
2022/02/20 01:57:19;;;;;;;6.47;2.80;;;4.50;99.90;;;;;;5073861;28;20209;-64
2022/02/20 01:59:46;;;;;;;6.20;2.60;;;4.50;99.90;;;;;;5074655;28;20211;-65
2022/02/20 02:02:13;;;;;;;7.53;2.40;;;4.40;99.90;;;;;;5073382;28;20229;-64
2022/02/20 02:04:40;;;;;;;6.67;2.53;;;4.40;99.90;;;;;;5073464;28;20206;-65
2022/02/20 02:07:07;;;;;;;5.27;1.97;;;4.40;99.90;;;;;;5071352;28;20288;-65
2022/02/20 02:09:35;;;;;;;8.27;2.30;;;4.40;99.90;;;;;;5072595;28;20207;-64
2022/02/20 02:12:02;;;;;;;4.73;2.37;;;4.40;99.90;;;;;;5063883;28;20819;-65
2022/02/20 02:14:29;;;;;;;5.73;2.43;;;4.30;99.90;;;;;;5067810;28;20934;-63
2022/02/20 02:16:57;;;;;;;5.67;2.47;;;4.40;99.90;;;;;;5068147;28;20211;-65
2022/02/20 02:19:24;;;;;;;7.43;2.80;;;4.40;99.90;;;;;;5086404;28;20246;-64
2022/02/20 02:21:51;;;;;;;5.20;2.50;;;4.40;99.90;;;;;;5062858;28;20636;-64
2022/02/20 02:24:20;;;;;;;6.57;2.53;;;4.40;99.90;;;;;;5066119;28;20288;-65
2022/02/20 02:26:47;;;;;;;4.60;2.80;;;4.40;99.90;;;;;;5072263;28;20284;-64
2022/02/20 02:29:14;;;;;;;8.70;3.00;;;4.30;99.90;;;;;;5070993;28;20238;-64
2022/02/20 02:31:40;;;;;;;7.00;3.73;;;4.30;99.90;;;;;;5071871;28;20703;-65
2022/02/20 02:34:07;;;;;;;7.30;2.10;;;4.30;99.90;;;;;;5072493;28;20205;-64
2022/02/20 02:36:34;;;;;;;5.03;2.43;;;4.30;99.90;;;;;;5082432;28;20628;-65
2022/02/20 02:39:01;;;;;;;5.97;2.53;;;4.30;99.90;;;;;;5071678;28;20244;-66
2022/02/20 02:41:29;;;;;;;5.00;2.07;;;4.30;99.90;;;;;;5072162;28;20208;-64
2022/02/20 02:43:56;;;;;;;7.63;2.50;;;4.30;99.90;;;;;;5070389;28;20209;-64
2022/02/20 02:46:23;;;;;;;6.67;2.37;;;4.30;99.90;;;;;;5057531;28;20632;-65
2022/02/20 02:48:50;;;;;;;7.47;2.60;;;4.30;99.90;;;;;;5072509;28;20271;-65
2022/02/20 02:51:17;;;;;;;5.10;2.00;;;4.20;99.90;;;;;;5071060;28;20594;-64
2022/02/20 02:53:44;;;;;;;5.87;2.60;;;4.20;99.90;;;;;;5085692;28;20205;-64
2022/02/20 02:56:11;;;;;;;7.33;2.37;;;4.20;99.90;;;;;;5071343;28;20295;-65
2022/02/20 02:58:40;;;;;;;10.20;2.50;;;4.20;99.90;;;;;;5073419;28;20263;-65
2022/02/20 03:01:07;;;;;;;4.93;2.23;;;4.20;99.90;;;;;;5061137;28;20564;-64
2022/02/20 03:03:33;;;;;;;4.97;2.10;;;4.10;99.90;;;;;;5072889;28;20638;-63
2022/02/20 03:06:00;;;;;;;5.83;2.33;;;4.20;99.90;;;;;;5071589;28;20592;-64
2022/02/20 03:08:28;;;;;;;3.37;2.10;;;4.10;99.90;;;;;;5066576;28;20681;-64
2022/02/20 03:10:56;;;;;;;5.80;2.23;;;4.10;99.90;;;;;;5059734;28;20244;-64
2022/02/20 03:13:24;;;;;;;4.03;2.40;;;4.10;99.90;;;;;;5076752;28;20209;-64
2022/02/20 03:15:52;;;;;;;6.70;2.40;;;4.10;99.90;;;;;;5075574;28;20207;-63
2022/02/20 03:18:19;;;;;;;4.83;2.00;;;4.10;99.90;;;;;;5075777;28;20203;-65
2022/02/20 03:20:46;;;;;;;3.70;2.13;;;4.10;99.90;;;;;;5074754;28;20788;-64
2022/02/20 03:23:13;;;;;;;10.63;2.80;;;4.00;99.90;;;;;;5076736;28;20212;-64
2022/02/20 03:25:39;;;;;;;5.23;2.50;;;4.00;99.90;;;;;;5076278;28;20236;-64
2022/02/20 03:28:06;;;;;;;6.73;2.70;;;4.00;99.90;;;;;;5075331;28;20205;-64
2022/02/20 03:30:33;;;;;;;8.80;2.70;;;3.90;99.90;;;;;;5083189;28;20767;-64
2022/02/20 03:33:01;;;;;;;5.13;2.37;;;3.90;99.90;;;;;;5076014;28;20244;-64
2022/02/20 03:35:28;;;;;;;4.73;2.40;;;3.90;99.90;;;;;;5078681;28;20209;-64
2022/02/20 03:37:55;;;;;;;7.37;2.50;;;4.00;99.90;;;;;;5070339;28;20235;-65
2022/02/20 03:40:22;;;;;;;7.10;2.67;;;3.90;99.90;;;;;;5067422;28;20734;-64
2022/02/20 03:42:49;;;;;;;7.00;2.40;;;4.00;99.90;;;;;;5076191;28;20284;-63
2022/02/20 03:45:16;;;;;;;4.67;2.17;;;3.90;99.90;;;;;;5073395;28;20712;-65
2022/02/20 03:47:43;;;;;;;4.10;2.50;;;3.90;99.90;;;;;;5075702;28;20296;-65
2022/02/20 03:50:12;;;;;;;6.30;2.37;;;3.90;99.90;;;;;;5070954;28;20586;-65
2022/02/20 03:52:40;;;;;;;4.77;2.23;;;3.90;99.90;;;;;;5079416;28;20235;-64
2022/02/20 03:55:09;;;;;;;6.37;2.57;;;3.90;99.90;;;;;;5085153;28;20296;-64
2022/02/20 03:57:36;;;;;;;4.20;2.50;;;3.90;99.90;;;;;;5074613;28;20205;-64
2022/02/20 04:00:06;;;;;;;4.83;2.00;;;3.90;99.90;;;;;;5075501;28;20292;-64
2022/02/20 04:02:34;;;;;;;6.10;2.20;;;3.90;99.90;;;;;;5074962;28;20209;-64
2022/02/20 04:05:01;;;;;;;5.23;2.30;;;3.90;99.90;;;;;;5070125;28;20260;-64
2022/02/20 04:07:29;;;;;;;6.70;2.50;;;4.00;99.90;;;;;;5075352;28;20216;-64
2022/02/20 04:09:56;;;;;;;7.30;2.60;;;4.00;99.90;;;;;;5075262;28;20251;-65
2022/02/20 04:12:25;;;;;;;6.10;2.50;;;4.00;99.90;;;;;;5075146;28;20252;-66
2022/02/20 04:14:51;;;;;;;3.97;2.17;;;3.90;99.90;;;;;;5071643;28;20201;-65
2022/02/20 04:17:20;;;;;;;5.90;2.50;;;3.90;99.90;;;;;;5078486;28;20204;-65
2022/02/20 04:19:47;;;;;;;5.47;3.07;;;4.60;99.90;;;;;;5074240;28;20228;-64
2022/02/20 04:22:14;;;;;;;5.13;2.63;;;3.90;99.90;;;;;;5075139;28;20236;-64
2022/02/20 04:24:42;;;;;;;4.90;2.20;;;3.90;99.90;;;;;;5073779;28;20209;-64
2022/02/20 04:27:09;;;;;;;6.57;2.60;;;3.90;99.90;;;;;;5071757;28;20331;-64
2022/02/20 04:29:37;;;;;;;7.70;3.17;;;3.90;99.90;;;;;;5086795;28;20293;-63
2022/02/20 04:32:05;;;;;;;6.23;2.80;;;4.00;99.90;;;;;;5075152;28;20247;-64
2022/02/20 04:34:32;;;;;;;4.87;2.23;;;3.90;99.90;;;;;;5070390;28;20563;-63
2022/02/20 04:36:59;;;;;;;6.87;2.90;;;3.90;99.90;;;;;;5073179;28;20206;-64
2022/02/20 04:39:26;;;;;;;6.47;2.73;;;3.90;99.90;;;;;;5074062;28;20241;-64
2022/02/20 04:41:55;;;;;;;5.83;2.30;;;3.90;99.90;;;;;;5074752;28;20725;-64
2022/02/20 04:44:22;;;;;;;5.57;2.53;;;4.00;99.90;;;;;;5074715;28;20212;-64
2022/02/20 04:46:49;;;;;;;6.40;2.60;;;3.90;99.90;;;;;;5074407;28;20299;-64
2022/02/20 04:49:16;;;;;;;7.07;2.60;;;3.90;99.90;;;;;;5072123;28;20620;-64
2022/02/20 04:51:43;;;;;;;8.07;2.53;;;3.90;99.90;;;;;;5064914;28;20225;-64
2022/02/20 04:54:10;;;;;;;6.30;2.97;;;3.90;99.90;;;;;;5078758;28;20289;-63
2022/02/20 04:56:37;;;;;;;6.97;2.60;;;4.00;99.90;;;;;;5074150;28;20209;-64
2022/02/20 04:59:05;;;;;;;6.20;2.60;;;3.90;99.90;;;;;;5073559;28;20297;-64
2022/02/20 05:01:32;;;;;;;5.80;2.83;;;3.90;99.90;;;;;;5055468;28;20204;-63
2022/02/20 05:03:58;;;;;;;4.60;2.47;;;3.90;99.90;;;;;;5066995;28;20296;-63
2022/02/20 05:06:27;;;;;;;5.93;2.87;;;3.90;99.90;;;;;;5074072;28;20212;-64
2022/02/20 05:08:54;;;;;;;6.20;3.40;;;3.90;99.90;;;;;;5073955;28;20221;-64
2022/02/20 05:11:23;;;;;;;7.47;2.80;;;3.90;99.90;;;;;;5087450;28;20231;-64
2022/02/20 05:13:50;;;;;;;5.93;2.87;;;3.90;99.90;;;;;;5085283;28;20224;-64
2022/02/20 05:16:18;;;;;;;6.07;2.60;;;3.90;99.90;;;;;;5077254;28;20825;-63
2022/02/20 05:18:45;;;;;;;7.43;2.73;;;4.00;99.90;;;;;;5076863;28;20202;-64
2022/02/20 05:21:12;;;;;;;7.03;3.20;;;4.00;99.90;;;;;;5070256;28;20661;-64
2022/02/20 05:23:38;;;;;;;5.77;2.57;;;4.00;99.60;;;;;;5068125;28;20713;-64
2022/02/20 05:26:05;;;;;;;5.50;2.53;;;4.00;99.60;;;;;;5067434;28;20205;-64
2022/02/20 05:28:32;;;;;;;7.10;2.43;;;4.00;99.60;;;;;;5075665;28;20650;-64
2022/02/20 05:30:59;;;;;;;7.37;2.90;;;4.00;99.60;;;;;;5067617;28;20216;-64
2022/02/20 05:33:27;;;;;;;8.27;3.13;;;4.00;99.60;;;;;;5065761;28;20233;-64
2022/02/20 05:35:54;;;;;;;7.67;2.77;;;4.10;99.40;;;;;;5070920;28;20236;-64
2022/02/20 05:38:21;;;;;;;6.37;2.90;;;4.10;99.40;;;;;;5066566;28;20232;-64
2022/02/20 05:40:48;;;;;;;11.07;3.00;;;4.10;99.40;;;;;;5060616;28;20574;-65
2022/02/20 05:43:15;;;;;;;7.23;3.23;;;4.10;99.30;;;;;;5072455;28;20198;-65
2022/02/20 05:45:41;;;;;;;7.50;3.00;;;4.10;99.30;;;;;;5073867;28;20209;-64
2022/02/20 05:48:08;;;;;;;6.60;2.63;;;4.10;99.10;;;;;;5070452;28;20705;-65
2022/02/20 05:50:37;;;;;;;6.30;2.90;;;4.10;99.10;;;;;;5087893;28;20204;-65
2022/02/20 05:53:04;;;;;;;8.10;2.93;;;4.10;98.90;;;;;;5069449;28;20591;-65
2022/02/20 05:55:30;;;;;;;4.83;2.83;;;4.10;98.80;;;;;;5067657;28;20263;-65
2022/02/20 05:57:58;;;;;;;5.73;2.80;;;4.10;98.90;;;;;;5059552;28;20205;-65
2022/02/20 06:00:26;;;;;;;5.37;2.90;;;4.10;99.00;;;;;;5066594;28;20688;-64
2022/02/20 06:02:53;;;;;;;8.10;3.63;;;4.10;99.00;;;;;;5072287;28;20281;-65
2022/02/20 06:05:20;;;;;;;8.30;3.17;;;4.10;98.90;;;;;;5073191;28;20678;-65
2022/02/20 06:07:48;;;;;;;7.77;3.23;;;4.10;98.90;;;;;;5073088;28;20223;-64
2022/02/20 06:10:15;;;;;;;9.63;3.77;;;4.10;98.90;;;;;;5082563;28;20201;-64
2022/02/20 06:12:42;;;;;;;6.37;3.00;;;4.10;98.90;;;;;;5078042;28;20308;-65
2022/02/20 06:15:10;;;;;;;7.03;3.50;;;4.20;98.80;;;;;;5061983;28;20232;-65
2022/02/20 06:17:37;;;;;;;7.03;3.07;;;4.20;98.80;;;;;;5072986;28;20205;-64
2022/02/20 06:20:05;;;;;;;6.73;3.53;;;4.20;98.90;;;;;;5058699;28;20292;-65
2022/02/20 06:22:32;;;;;;;6.03;3.10;;;4.20;99.00;;;;;;5072588;28;20289;-65
2022/02/20 06:25:00;;;;;;;6.63;2.77;;;4.20;98.70;;;;;;5067896;28;20217;-65
2022/02/20 06:27:27;;;;;;;6.83;3.17;;;4.20;98.70;;;;;;5063028;28;20660;-64
2022/02/20 06:29:54;;;;;;;5.70;3.00;;;4.30;98.70;;;;;;5074402;28;20248;-64
2022/02/20 06:32:21;;;;;;;7.93;3.83;;;4.30;98.60;;;;;;5053011;28;20241;-65
2022/02/20 06:34:48;;;;;;;6.67;2.93;;;4.30;98.60;;;;;;5064125;28;20632;-65
2022/02/20 06:37:16;;;;;;;8.00;3.70;;;4.30;98.50;;;;;;5072932;28;20206;-65
2022/02/20 06:39:44;;;;;;;6.03;2.90;;;4.40;98.50;;;;;;5063428;28;20244;-65
2022/02/20 06:42:13;;;;;;;5.47;3.40;;;4.40;98.50;;;;;;5083740;28;20218;-65
2022/02/20 06:44:40;;;;;;;8.60;3.37;;;4.40;98.50;;;;;;5073469;28;20741;-65
2022/02/20 06:47:07;;;;;;;8.60;3.80;;;4.40;98.50;;;;;;5075645;28;20296;-64
2022/02/20 06:49:34;;;;;;;8.97;3.17;;;4.40;98.90;;;;;;5074833;28;20654;-64
2022/02/20 06:52:01;;;;;;;7.53;3.47;;;4.50;98.60;;;;;;5077581;28;20236;-65
2022/02/20 06:54:28;;;;;;;6.17;3.00;;;4.50;98.60;;;;;;5081840;28;20207;-65
2022/02/20 06:56:56;;;;;;;6.70;3.57;;;4.50;98.60;;;;;;5085168;28;20304;-64
2022/02/20 06:59:24;;;;;;;8.10;3.20;;;4.50;98.60;;;;;;5072522;28;20198;-63
2022/02/20 07:01:51;;;;;;;7.43;3.07;;;4.60;98.60;;;;;;5072890;28;20691;-70
2022/02/20 07:04:19;;;;;;;8.43;3.17;;;4.60;98.60;;;;;;5073268;28;21016;-63
2022/02/20 07:06:46;;;;;;;8.00;3.70;;;4.60;98.50;;;;;;5065813;28;20296;-64
2022/02/20 07:09:14;;;;;;;8.30;3.87;;;4.70;98.50;;;;;;5075657;28;20209;-65
2022/02/20 07:11:42;;;;;;;9.70;3.60;;;4.70;98.40;;;;;;5075526;28;20201;-64
2022/02/20 07:14:09;;;;;;;6.50;3.50;;;4.70;98.30;;;;;;5071272;28;20209;-64
2022/02/20 07:16:37;;;;;;;10.87;3.60;;;4.70;98.20;;;;;;5068966;28;20662;-65
2022/02/20 07:19:04;;;;;;;6.13;3.93;;;4.80;98.20;;;;;;5066928;28;20259;-65
2022/02/20 07:21:31;;;;;;;7.97;3.83;;;4.80;98.10;;;;;;5074344;28;20689;-66
2022/02/20 07:23:59;;;;;;;5.93;3.63;;;4.80;97.90;;;;;;5070404;28;20753;-65
2022/02/20 07:26:29;;;;;;;7.10;3.70;;;4.90;97.80;;;;;;5071938;28;20241;-65
2022/02/20 07:28:56;;;;;;;9.20;4.27;;;4.90;97.80;;;;;;5073009;28;20248;-64
2022/02/20 07:31:26;;;;;;;7.63;4.00;;;4.90;97.80;;;;;;5065501;28;20575;-63
2022/02/20 07:33:54;;;;;;;10.20;4.40;;;5.00;97.90;;;;;;5071556;28;20232;-64
2022/02/20 07:36:22;;;;;;;7.83;3.97;;;5.00;97.60;;;;;;5075583;28;20307;-64
2022/02/20 07:38:49;;;;;;;11.10;4.27;;;5.10;97.30;;;;;;5075344;28;20301;-64
2022/02/20 07:41:16;;;;;;;9.83;3.87;;;5.10;97.20;;;;;;5074600;28;20264;-65
2022/02/20 07:43:44;;;;;;;6.97;4.03;;;5.20;96.90;;;;;;5074289;28;20198;-63
2022/02/20 07:46:11;;;;;;;9.53;3.80;;;5.20;96.80;;;;;;5061695;28;20613;-65
2022/02/20 07:48:39;;;;;;;10.40;4.23;;;5.30;96.70;;;;;;5074866;28;20211;-65
2022/02/20 07:51:07;;;;;;;7.40;3.83;;;5.30;96.40;;;;;;5073833;28;20245;-64
2022/02/20 07:53:35;;;;;;;10.97;4.53;;;5.40;96.40;;;;;;5069034;28;20232;-65
2022/02/20 07:56:01;;;;;;;9.30;4.40;;;5.50;96.30;;;;;;5074040;28;20259;-64
2022/02/20 07:58:28;;;;;;;11.90;4.47;;;5.60;96.10;;;;;;5061441;28;20210;-65
2022/02/20 08:00:55;;;;;;;8.40;3.83;;;5.70;95.90;;;;;;5065583;28;20212;-65
2022/02/20 08:03:22;;;;;;;7.70;3.90;;;5.80;95.80;;;;;;5073985;28;20206;-65
2022/02/20 08:05:49;;;;;;;10.10;3.87;;;5.90;95.60;;;;;;5073008;28;20208;-64
2022/02/20 08:08:17;;;;;;;8.33;4.33;;;6.10;95.10;;;;;;5078308;28;20208;-66
2022/02/20 08:10:44;;;;;;;8.77;3.90;;;6.30;94.90;;;;;;5080930;28;20636;-65
2022/02/20 08:13:11;;;;;;;8.80;3.87;;;6.40;94.60;;;;;;5073634;28;20715;-64
2022/02/20 08:15:38;;;;;;;7.57;3.70;;;6.50;94.40;;;;;;5075762;28;20212;-64
2022/02/20 08:18:05;;;;;;;9.20;3.40;;;6.50;93.80;;;;;;5071095;28;20359;-65
2022/02/20 08:20:32;;;;;;;8.40;4.03;;;6.70;93.30;;;;;;5070642;28;20225;-65
2022/02/20 08:22:59;;;;;;;8.30;3.87;;;6.70;93.30;;;;;;5069249;28;20299;-63
2022/02/20 08:25:27;;;;;;;6.87;3.23;;;6.90;93.10;;;;;;5085238;28;20284;-66
2022/02/20 08:27:56;;;;;;;11.17;3.20;;;7.10;92.90;;;;;;5075325;28;20201;-65
2022/02/20 08:30:23;;;;;;;11.17;3.30;;;7.30;93.10;;;;;;5076223;28;20220;-64
2022/02/20 08:32:49;;;;;;;8.20;3.77;;;7.60;92.30;;;;;;5085632;28;20220;-65
2022/02/20 08:35:16;;;;;;;8.67;4.40;;;7.80;91.60;;;;;;5078183;28;20291;-64
2022/02/20 08:37:46;;;;;;;8.63;4.17;;;8.00;91.00;;;;;;5081726;28;20212;-64
2022/02/20 08:40:15;;;;;;;7.53;3.63;;;8.20;90.60;;;;;;5036208;28;1111798;-64
2022/02/20 08:42:43;;;;;;;9.27;4.17;;;8.40;90.10;;;;;;5066125;28;20284;-65
2022/02/20 08:45:11;;;;;;;5.70;3.60;;;8.50;87.50;;;;;;5075881;28;20372;-64
2022/02/20 08:47:38;;;;;;;6.40;3.43;;;8.60;87.00;;;;;;5076261;28;20234;-66
2022/02/20 08:50:06;;;;;;;6.37;3.60;;;8.80;86.70;;;;;;5080486;28;20638;-69
2022/02/20 08:52:33;;;;;;;10.30;4.13;;;9.10;85.80;;;;;;5077702;28;20216;-69
2022/02/20 08:55:00;;;;;;;7.03;3.17;;;9.30;84.50;;;;;;5077856;28;20380;-68
2022/02/20 08:57:27;;;;;;;6.77;3.33;;;9.70;83.70;;;;;;5073923;28;20208;-69
2022/02/20 08:59:57;;;;;;;7.10;3.43;;;10.10;79.80;;;;;;5081968;28;20208;-69
2022/02/20 09:02:23;;;;;;;6.30;3.23;;;10.50;78.60;;;;;;5074737;28;20213;-69
2022/02/20 09:04:50;;;;;;;7.33;3.23;;;10.80;75.20;;;;;;5073522;28;20288;-69
2022/02/20 09:07:17;;;;;;;7.87;3.30;;;10.80;73.40;;;;;;5087938;28;20336;-67
2022/02/20 09:09:44;;;;;;;5.67;2.73;;;10.60;71.60;;;;;;5081688;28;20304;-69
2022/02/20 09:12:11;;;;;;;9.50;3.93;;;10.40;71.00;;;;;;5085833;28;20382;-69
2022/02/20 09:14:38;;;;;;;7.27;3.60;;;10.00;70.50;;;;;;5082545;28;20492;-68
2022/02/20 09:17:06;;;;;;;7.63;3.83;;;9.90;72.20;;;;;;5069126;28;20535;-69
2022/02/20 09:19:33;;;;;;;6.33;3.50;;;9.60;72.50;;;;;;5069943;28;20205;-68
2022/02/20 09:22:00;;;;;;;6.83;3.37;;;9.50;72.80;;;;;;5069071;28;20312;-68
2022/02/20 09:24:27;;;;;;;6.03;3.40;;;9.20;73.30;;;;;;5073057;28;20288;-69
2022/02/20 09:26:54;;;;;;;10.27;3.80;;;9.10;74.40;;;;;;5075540;28;20213;-68
2022/02/20 09:29:21;;;;;;;5.90;3.20;;;9.00;74.70;;;;;;5072401;28;20224;-68
2022/02/20 09:31:48;;;;;;;8.37;3.27;;;9.00;74.30;;;;;;5069989;28;20647;-67
2022/02/20 09:34:16;;;;;;;8.35;4.25;;;9.30;78.10;;;;;;5061199;28;20482;-64
2022/02/20 09:36:43;;;;;;;8.70;3.87;;;10.10;81.40;;;;;;5071345;28;20632;-67
2022/02/20 09:39:10;;;;;;;8.13;3.70;;;11.40;72.40;;;;;;5070808;28;20662;-64
2022/02/20 09:41:37;;;;;;;7.93;3.33;;;12.50;68.30;;;;;;5072711;28;20213;-68
2022/02/20 09:44:05;;;;;;;6.97;3.40;;;12.70;62.10;;;;;;5072417;28;20513;-69
2022/02/20 09:46:32;;;;;;;4.57;2.83;;;12.40;60.20;;;;;;5072841;28;20297;-69
2022/02/20 09:49:00;;;;;;;7.73;3.30;;;11.70;60.00;;;;;;5071512;28;20209;-71
2022/02/20 09:51:30;;;;;;;7.20;2.80;;;11.00;61.40;;;;;;5073662;28;20197;-68
2022/02/20 09:53:58;;;;;;;6.70;3.40;;;10.30;63.20;;;;;;5073091;28;20265;-66
2022/02/20 09:56:25;;;;;;;8.10;3.50;;;9.70;66.40;;;;;;5082534;28;20209;-67
2022/02/20 09:58:52;;;;;;;6.00;2.90;;;9.20;68.80;;;;;;5087759;28;20210;-71
2022/02/20 10:01:20;;;;;;;5.77;2.97;;;8.70;70.70;;;;;;5081492;28;20205;-70
2022/02/20 10:03:48;;;;;;;6.40;3.00;;;8.40;72.70;;;;;;5076316;28;20205;-70
2022/02/20 10:06:20;;;;;;;7.00;3.00;;;8.10;74.40;;;;;;5078564;28;20273;-68
2022/02/20 10:08:51;;;;;;;6.37;2.97;;;7.80;76.50;;;;;;5086360;28;20231;-70
2022/02/20 10:11:23;;;;;;;6.67;2.87;;;7.60;78.30;;;;;;5074876;28;20671;-70
2022/02/20 10:13:51;;;;;;;6.47;2.77;;;7.50;80.00;;;;;;5069729;28;20221;-70
2022/02/20 10:16:24;;;;;;;7.63;2.40;;;7.40;81.40;;;;;;5072173;28;20205;-70
2022/02/20 10:18:53;;;;;;;6.57;3.10;;;7.30;82.70;;;;;;5061797;28;20255;-70
2022/02/20 10:21:22;;;;;;;8.37;3.60;;;7.20;83.80;;;;;;5073891;28;20730;-70
2022/02/20 10:23:51;;;;;;;5.13;3.33;;;7.20;85.00;;;;;;5083589;28;20251;-70
2022/02/20 10:26:20;;;;;;;7.63;3.00;;;7.20;86.10;;;;;;5070543;28;20984;-70
2022/02/20 10:29:02;;;;;;;6.23;2.83;;;7.10;87.00;;;;;;5087296;28;20240;-70
2022/02/20 10:31:43;;;;;;;6.10;2.90;;;7.10;87.80;;;;;;5093555;28;20577;-71
2022/02/20 10:34:12;;;;;;;8.60;3.90;;;7.00;88.90;;;;;;5072942;28;20681;-71
2022/02/20 10:36:51;;;;;;;6.03;3.27;;;7.00;89.70;;;;;;5059802;28;20245;-70
2022/02/20 10:39:25;;;;;;;6.93;2.83;;;6.90;90.30;;;;;;5059876;28;20747;-72
2022/02/20 10:41:53;;;;;;;5.30;2.53;;;6.90;90.80;;;;;;5058836;28;20248;-71
2022/02/20 10:44:20;;;;;;;9.07;3.60;;;6.90;91.20;;;;;;5042242;28;20194;-71
2022/02/20 10:46:48;;;;;;;4.53;2.50;;;6.90;91.50;;;;;;5046957;28;20212;-67
2022/02/20 10:49:25;;;;;;;7.67;3.33;;;6.70;92.10;;;;;;5056566;28;20207;-69
2022/02/20 10:51:53;;;;;;;6.57;3.03;;;6.90;92.30;;;;;;5043138;28;20293;-71
2022/02/20 10:54:22;;;;;;;6.03;2.60;;;6.80;92.90;;;;;;5051935;28;20316;-70
2022/02/20 10:56:50;;;;;;;4.97;2.47;;;6.70;93.60;;;;;;5052605;28;20205;-69
2022/02/20 10:59:20;;;;;;;4.60;2.50;;;6.70;94.30;;;;;;5050391;28;20210;-70
2022/02/20 11:01:48;;;;;;;5.27;2.60;;;6.60;94.90;;;;;;5053342;28;20255;-69
2022/02/20 11:04:15;;;;;;;8.07;3.37;;;6.60;95.60;;;;;;5052388;28;20212;-70
2022/02/20 11:06:44;;;;;;;4.40;2.40;;;6.50;96.30;;;;;;5057854;28;20202;-69
2022/02/20 11:09:12;;;;;;;3.90;2.43;;;6.50;97.10;;;;;;5056299;28;20217;-69
2022/02/20 11:11:47;;;;;;;4.53;2.67;;;6.40;98.00;;;;;;5049259;28;20289;-69
2022/02/20 11:14:15;;;;;;;10.20;4.17;;;6.40;99.20;;;;;;5059308;28;20269;-69
2022/02/20 11:16:47;;;;;;;7.10;3.13;;;6.30;99.90;;;;;;5048658;28;20209;-69
2022/02/20 11:19:16;;;;;;;4.60;2.87;;;6.30;99.90;;;;;;5056363;28;20690;-70
2022/02/20 11:21:45;;;;;;;4.77;2.80;;;6.30;99.90;;;;;;5043488;28;20226;-70
2022/02/20 11:24:14;;;;;;;5.83;3.27;;;6.20;99.90;;;;;;5056995;28;20293;-69
2022/02/20 11:26:44;;;;;;;5.47;3.10;;;6.10;99.90;;;;;;5050667;28;20210;-69
2022/02/20 11:29:11;;;;;;;5.90;3.27;;;6.00;99.90;;;;;;5055350;28;20237;-70
2022/02/20 11:31:41;;;;;;;4.27;2.93;;;6.00;99.90;;;;;;5055100;28;20244;-70
2022/02/20 11:34:10;;;;;;;5.67;3.20;;;5.90;99.90;;;;;;5044627;28;20551;-70
2022/02/20 11:36:37;;;;;;;5.03;3.80;;;5.80;99.90;;;;;;5055962;28;20268;-69
2022/02/20 11:39:09;;;;;;;4.00;3.00;;;5.80;99.90;;;;;;5053418;28;20316;-69
2022/02/20 11:41:38;;;;;;;5.87;2.93;;;5.80;99.90;;;;;;5067324;28;20683;-70
2022/02/20 11:44:19;;;;;;;3.73;2.67;;;5.80;99.90;;;;;;5054149;28;20744;-71
2022/02/20 11:46:49;;;;;;;4.33;2.00;;;5.70;99.90;;;;;;5040541;28;20210;-70
2022/02/20 11:49:30;;;;;;;3.03;2.13;;;5.60;99.90;;;;;;5054123;28;20214;-69
2022/02/20 11:52:01;;;;;;;2.13;1.90;;;5.60;99.90;;;;;;5055359;28;20221;-69
2022/02/20 11:54:29;;;;;;;4.00;2.40;;;5.50;99.90;;;;;;5055215;28;20241;-69
2022/02/20 11:57:29;;;;;;;3.83;2.10;;;5.50;99.90;;;;;;5051600;28;20539;-69
2022/02/20 12:00:20;;;;;;;2.33;1.97;;;5.40;99.90;;;;;;5047368;28;20201;-69
2022/02/20 12:03:17;;;;;;;3.33;2.43;;;5.40;99.90;;;;;;5054849;28;20221;-68
2022/02/20 12:06:21;;;;;;;2.87;2.20;;;5.30;99.90;;;;;;5055547;28;20225;-70
2022/02/20 12:08:50;;;;;;;3.00;2.50;;;5.30;99.90;;;;;;5049851;28;20202;-69
2022/02/20 12:11:19;;;;;;;5.43;2.53;;;5.30;99.90;;;;;;5052813;28;20206;-69
2022/02/20 12:13:48;;;;;;;3.37;2.20;;;5.30;99.90;;;;;;5044264;28;20226;-68
2022/02/20 12:16:25;;;;;;;4.93;3.03;;;5.30;99.90;;;;;;5049149;28;20214;-69
2022/02/20 12:19:12;;;;;;;4.57;3.10;;;5.30;99.90;;;;;;5055042;28;20213;-71
2022/02/20 12:21:59;;;;;;;5.23;2.90;;;5.20;99.90;;;;;;5051438;28;20221;-69
2022/02/20 12:24:40;;;;;;;3.63;3.10;;;5.20;99.90;;;;;;5050670;28;20622;-70
2022/02/20 12:27:08;;;;;;;4.97;2.60;;;5.20;99.90;;;;;;5045099;28;20276;-70
2022/02/20 12:29:38;;;;;;;5.00;2.73;;;5.20;99.90;;;;;;5051810;28;20738;-70
2022/02/20 12:32:10;;;;;;;5.00;2.80;;;5.30;99.90;;;;;;5051903;28;20569;-68
2022/02/20 12:35:17;;;;;;;4.60;3.37;;;5.30;99.90;;;;;;5053257;28;20214;-68
2022/02/20 12:37:46;;;;;;;4.13;3.10;;;5.30;99.90;;;;;;5043822;28;20214;-68
2022/02/20 12:40:16;;;;;;;4.30;3.23;;;5.30;99.90;;;;;;5053120;28;20715;-68
2022/02/20 12:42:45;;;;;;;5.73;3.60;;;5.30;99.90;;;;;;5052839;28;20202;-69
2022/02/20 12:45:16;;;;;;;3.40;2.73;;;5.40;99.90;;;;;;5054086;28;20301;-69
2022/02/20 12:47:47;;;;;;;5.37;3.17;;;5.40;99.90;;;;;;5054519;28;20209;-69
2022/02/20 12:50:15;;;;;;;5.17;3.27;;;5.50;99.90;;;;;;5055098;28;20206;-68
2022/02/20 12:52:43;;;;;;;4.43;3.17;;;5.50;99.90;;;;;;5054268;28;20248;-68
2022/02/20 12:55:15;;;;;;;4.83;3.00;;;5.50;99.90;;;;;;5050819;28;20227;-69
2022/02/20 12:57:42;;;;;;;3.80;3.10;;;5.50;99.90;;;;;;5053276;28;20198;-69
2022/02/20 13:00:12;;;;;;;4.80;3.20;;;5.50;99.90;;;;;;5055846;28;20277;-68
2022/02/20 13:02:41;;;;;;;4.10;3.03;;;5.50;99.90;;;;;;5047592;28;20296;-70